sensor_id;sensor_type;location;lat;lon;timestamp;pressure;altitude;pressure_sealevel;temperature;humidity
8280;BME280;8335;42.646;23.380;2024-02-23T00:00:54;143105.06;;;6.09;89.79
8280;BME280;8335;42.646;23.380;2024-02-23T00:03:20;143111.25;;;6.12;89.94
8280;BME280;8335;42.646;23.380;2024-02-23T00:05:47;143101.38;;;6.07;90.24
8280;BME280;8335;42.646;23.380;2024-02-23T00:08:13;143101.38;;;6.07;90.04
8280;BME280;8335;42.646;23.380;2024-02-23T00:10:40;143093.91;;;6.04;90.32
8280;BME280;8335;42.646;23.380;2024-02-23T00:13:08;143088.97;;;6.02;90.54
8280;BME280;8335;42.646;23.380;2024-02-23T00:15:35;143093.91;;;6.04;90.50
8280;BME280;8335;42.646;23.380;2024-02-23T00:18:10;143085.25;;;6.01;91.50
8280;BME280;8335;42.646;23.380;2024-02-23T00:20:38;143071.63;;;5.95;91.63
8280;BME280;8335;42.646;23.380;2024-02-23T00:23:05;143069.16;;;5.94;91.42
8280;BME280;8335;42.646;23.380;2024-02-23T00:25:31;143065.41;;;5.93;91.57
8280;BME280;8335;42.646;23.380;2024-02-23T00:27:58;143071.63;;;5.95;91.08
8280;BME280;8335;42.646;23.380;2024-02-23T00:30:25;143067.91;;;5.94;91.40
8280;BME280;8335;42.646;23.380;2024-02-23T00:32:52;143060.47;;;5.91;90.86
8280;BME280;8335;42.646;23.380;2024-02-23T00:35:20;143059.19;;;5.90;90.20
8280;BME280;8335;42.646;23.380;2024-02-23T00:37:47;143061.69;;;5.91;91.14
8280;BME280;8335;42.646;23.380;2024-02-23T00:40:14;143060.47;;;5.91;90.72
8280;BME280;8335;42.646;23.380;2024-02-23T00:42:41;143048.03;;;5.86;91.17
8280;BME280;8335;42.646;23.380;2024-02-23T00:45:08;143048.03;;;5.86;91.33
8280;BME280;8335;42.646;23.380;2024-02-23T00:47:35;143046.78;;;5.85;90.24
8280;BME280;8335;42.646;23.380;2024-02-23T00:50:03;143051.78;;;5.87;90.80
8280;BME280;8335;42.646;23.380;2024-02-23T00:52:31;143043.09;;;5.84;91.56
8280;BME280;8335;42.646;23.380;2024-02-23T00:54:59;143038.16;;;5.82;91.10
8280;BME280;8335;42.646;23.380;2024-02-23T00:57:26;143017.09;;;5.73;91.71
8280;BME280;8335;42.646;23.380;2024-02-23T00:59:55;143028.22;;;5.77;91.05
8280;BME280;8335;42.646;23.380;2024-02-23T01:02:22;143033.22;;;5.79;91.24
8280;BME280;8335;42.646;23.380;2024-02-23T01:04:48;143022.03;;;5.75;91.13
8280;BME280;8335;42.646;23.380;2024-02-23T01:07:15;143029.44;;;5.78;90.71
8280;BME280;8335;42.646;23.380;2024-02-23T01:09:43;143031.97;;;5.79;91.11
8280;BME280;8335;42.646;23.380;2024-02-23T01:12:09;143003.47;;;5.67;91.08
8280;BME280;8335;42.646;23.380;2024-02-23T01:14:36;143020.81;;;5.74;91.43
8280;BME280;8335;42.646;23.380;2024-02-23T01:17:03;143022.03;;;5.75;91.34
8280;BME280;8335;42.646;23.380;2024-02-23T01:19:29;143020.81;;;5.74;91.19
8280;BME280;8335;42.646;23.380;2024-02-23T01:21:56;143001.00;;;5.66;90.77
8280;BME280;8335;42.646;23.380;2024-02-23T01:24:25;142968.81;;;5.53;91.47
8280;BME280;8335;42.646;23.380;2024-02-23T01:26:54;143005.94;;;5.68;91.46
8280;BME280;8335;42.646;23.380;2024-02-23T01:29:21;143012.13;;;5.71;90.76
8280;BME280;8335;42.646;23.380;2024-02-23T01:31:48;142983.69;;;5.59;90.93
8280;BME280;8335;42.646;23.380;2024-02-23T01:34:16;143010.88;;;5.70;91.01
8280;BME280;8335;42.646;23.380;2024-02-23T01:36:42;143003.47;;;5.67;91.06
8280;BME280;8335;42.646;23.380;2024-02-23T01:39:09;142983.69;;;5.59;91.40
8280;BME280;8335;42.646;23.380;2024-02-23T01:41:36;143010.88;;;5.70;91.02
8280;BME280;8335;42.646;23.380;2024-02-23T01:44:04;143007.19;;;5.69;91.07
8280;BME280;8335;42.646;23.380;2024-02-23T01:46:31;142997.31;;;5.65;91.03
8280;BME280;8335;42.646;23.380;2024-02-23T01:48:59;143003.47;;;5.67;91.13
8280;BME280;8335;42.646;23.380;2024-02-23T01:51:25;142989.84;;;5.62;91.50
8280;BME280;8335;42.646;23.380;2024-02-23T01:53:52;143002.25;;;5.67;91.34
8280;BME280;8335;42.646;23.380;2024-02-23T01:56:19;143010.88;;;5.70;90.88
8280;BME280;8335;42.646;23.380;2024-02-23T01:58:47;143007.19;;;5.69;90.96
8280;BME280;8335;42.646;23.380;2024-02-23T02:01:15;143010.88;;;5.70;90.40
8280;BME280;8335;42.646;23.380;2024-02-23T02:03:42;142997.31;;;5.65;90.83
8280;BME280;8335;42.646;23.380;2024-02-23T02:06:09;142993.56;;;5.63;91.18
8280;BME280;8335;42.646;23.380;2024-02-23T02:08:37;142996.03;;;5.64;91.37
8280;BME280;8335;42.646;23.380;2024-02-23T02:11:04;142986.16;;;5.60;90.96
8280;BME280;8335;42.646;23.380;2024-02-23T02:13:31;142979.97;;;5.58;91.31
8280;BME280;8335;42.646;23.380;2024-02-23T02:15:59;142988.63;;;5.61;91.75
8280;BME280;8335;42.646;23.380;2024-02-23T02:18:28;143004.72;;;5.68;91.09
8280;BME280;8335;42.646;23.380;2024-02-23T02:20:56;143007.19;;;5.69;90.42
8280;BME280;8335;42.646;23.380;2024-02-23T02:23:23;143010.88;;;5.70;90.69
8280;BME280;8335;42.646;23.380;2024-02-23T02:25:54;143018.34;;;5.73;90.53
8280;BME280;8335;42.646;23.380;2024-02-23T02:28:21;143023.28;;;5.75;90.18
8280;BME280;8335;42.646;23.380;2024-02-23T02:30:48;143026.97;;;5.77;90.27
8280;BME280;8335;42.646;23.380;2024-02-23T02:33:15;143005.94;;;5.68;90.31
8280;BME280;8335;42.646;23.380;2024-02-23T02:35:43;143009.66;;;5.70;90.65
8280;BME280;8335;42.646;23.380;2024-02-23T02:38:10;143007.19;;;5.69;91.44
8280;BME280;8335;42.646;23.380;2024-02-23T02:40:37;143013.34;;;5.71;91.39
8280;BME280;8335;42.646;23.380;2024-02-23T02:43:04;142999.78;;;5.66;91.15
8280;BME280;8335;42.646;23.380;2024-02-23T02:45:31;142988.63;;;5.61;91.40
8280;BME280;8335;42.646;23.380;2024-02-23T02:47:59;142993.56;;;5.63;91.42
8280;BME280;8335;42.646;23.380;2024-02-23T02:50:26;142966.34;;;5.52;92.45
8280;BME280;8335;42.646;23.380;2024-02-23T02:52:54;142967.56;;;5.52;92.69
8280;BME280;8335;42.646;23.380;2024-02-23T02:55:21;142975.00;;;5.56;91.97
8280;BME280;8335;42.646;23.380;2024-02-23T02:57:48;142983.69;;;5.59;91.45
8280;BME280;8335;42.646;23.380;2024-02-23T03:00:14;142981.19;;;5.58;92.06
8280;BME280;8335;42.646;23.380;2024-02-23T03:02:41;142960.13;;;5.49;92.47
8280;BME280;8335;42.646;23.380;2024-02-23T03:05:08;142981.19;;;5.58;91.74
8280;BME280;8335;42.646;23.380;2024-02-23T03:07:34;142971.28;;;5.54;91.66
8280;BME280;8335;42.646;23.380;2024-02-23T03:10:03;142967.56;;;5.52;92.41
8280;BME280;8335;42.646;23.380;2024-02-23T03:12:30;142962.66;;;5.50;92.24
8280;BME280;8335;42.646;23.380;2024-02-23T03:14:56;142957.66;;;5.48;92.91
8280;BME280;8335;42.646;23.380;2024-02-23T03:17:23;142947.78;;;5.44;92.64
8280;BME280;8335;42.646;23.380;2024-02-23T03:19:50;142947.78;;;5.44;92.56
8280;BME280;8335;42.646;23.380;2024-02-23T03:22:16;142936.63;;;5.40;92.62
8280;BME280;8335;42.646;23.380;2024-02-23T03:24:43;142828.97;;;4.95;93.17
8280;BME280;8335;42.646;23.380;2024-02-23T03:27:11;142923.00;;;5.34;92.83
8280;BME280;8335;42.646;23.380;2024-02-23T03:29:38;142925.47;;;5.35;93.05
8280;BME280;8335;42.646;23.380;2024-02-23T03:32:06;142927.97;;;5.36;92.88
8280;BME280;8335;42.646;23.380;2024-02-23T03:34:32;142929.22;;;5.37;93.20
8280;BME280;8335;42.646;23.380;2024-02-23T03:36:59;142918.06;;;5.32;94.21
8280;BME280;8335;42.646;23.380;2024-02-23T03:39:27;142923.00;;;5.34;93.84
8280;BME280;8335;42.646;23.380;2024-02-23T03:41:54;142919.28;;;5.33;94.56
8280;BME280;8335;42.646;23.380;2024-02-23T03:44:22;142909.38;;;5.29;94.30
8280;BME280;8335;42.646;23.380;2024-02-23T03:46:48;142895.81;;;5.23;94.37
8280;BME280;8335;42.646;23.380;2024-02-23T03:49:15;142898.25;;;5.24;94.66
8280;BME280;8335;42.646;23.380;2024-02-23T03:51:41;142898.25;;;5.24;95.12
8280;BME280;8335;42.646;23.380;2024-02-23T03:54:08;142893.31;;;5.22;95.38
8280;BME280;8335;42.646;23.380;2024-02-23T03:56:38;142901.97;;;5.25;95.31
8280;BME280;8335;42.646;23.380;2024-02-23T03:59:06;142894.56;;;5.22;95.42
8280;BME280;8335;42.646;23.380;2024-02-23T04:01:36;142901.97;;;5.25;95.52
8280;BME280;8335;42.646;23.380;2024-02-23T04:04:03;142898.25;;;5.24;95.12
8280;BME280;8335;42.646;23.380;2024-02-23T04:06:30;142906.91;;;5.28;95.74
8280;BME280;8335;42.646;23.380;2024-02-23T04:08:57;142908.16;;;5.28;95.53
8280;BME280;8335;42.646;23.380;2024-02-23T04:11:24;142913.13;;;5.30;95.65
8280;BME280;8335;42.646;23.380;2024-02-23T04:13:50;142911.88;;;5.30;95.37
8280;BME280;8335;42.646;23.380;2024-02-23T04:16:17;142913.13;;;5.30;95.45
8280;BME280;8335;42.646;23.380;2024-02-23T04:18:44;142921.75;;;5.34;95.29
8280;BME280;8335;42.646;23.380;2024-02-23T04:21:11;142925.47;;;5.35;95.33
8280;BME280;8335;42.646;23.380;2024-02-23T04:23:37;142927.97;;;5.36;95.63
8280;BME280;8335;42.646;23.380;2024-02-23T04:26:04;142923.00;;;5.34;95.73
8280;BME280;8335;42.646;23.380;2024-02-23T04:28:30;142906.91;;;5.28;96.08
8280;BME280;8335;42.646;23.380;2024-02-23T04:30:59;142915.59;;;5.31;95.72
8280;BME280;8335;42.646;23.380;2024-02-23T04:33:26;142923.00;;;5.34;95.77
8280;BME280;8335;42.646;23.380;2024-02-23T04:35:53;142925.47;;;5.35;95.28
8280;BME280;8335;42.646;23.380;2024-02-23T04:38:20;142929.22;;;5.37;95.29
8280;BME280;8335;42.646;23.380;2024-02-23T04:40:47;142909.38;;;5.29;95.86
8280;BME280;8335;42.646;23.380;2024-02-23T04:43:13;142913.13;;;5.30;95.44
8280;BME280;8335;42.646;23.380;2024-02-23T04:45:40;142900.72;;;5.25;96.08
8280;BME280;8335;42.646;23.380;2024-02-23T04:48:07;142899.50;;;5.24;95.82
8280;BME280;8335;42.646;23.380;2024-02-23T04:50:34;142885.88;;;5.19;96.17
8280;BME280;8335;42.646;23.380;2024-02-23T04:53:02;142882.19;;;5.17;96.15
8280;BME280;8335;42.646;23.380;2024-02-23T04:55:29;142879.72;;;5.16;96.32
8280;BME280;8335;42.646;23.380;2024-02-23T04:57:55;142862.38;;;5.09;96.52
8280;BME280;8335;42.646;23.380;2024-02-23T05:00:22;142859.91;;;5.08;96.37
8280;BME280;8335;42.646;23.380;2024-02-23T05:02:48;142853.69;;;5.06;97.01
8280;BME280;8335;42.646;23.380;2024-02-23T05:05:15;142835.13;;;4.98;97.00
8280;BME280;8335;42.646;23.380;2024-02-23T05:07:42;142830.19;;;4.96;97.46
8280;BME280;8335;42.646;23.380;2024-02-23T05:10:10;142811.66;;;4.88;97.72
8280;BME280;8335;42.646;23.380;2024-02-23T05:12:37;142786.88;;;4.78;98.34
8280;BME280;8335;42.646;23.380;2024-02-23T05:15:04;142809.19;;;4.87;97.88
8280;BME280;8335;42.646;23.380;2024-02-23T05:17:31;142791.84;;;4.80;98.60
8280;BME280;8335;42.646;23.380;2024-02-23T05:19:57;142773.31;;;4.73;99.02
8280;BME280;8335;42.646;23.380;2024-02-23T05:22:24;142769.56;;;4.71;99.03
8280;BME280;8335;42.646;23.380;2024-02-23T05:24:51;142748.53;;;4.62;98.86
8280;BME280;8335;42.646;23.380;2024-02-23T05:27:19;142801.72;;;4.84;98.15
8280;BME280;8335;42.646;23.380;2024-02-23T05:29:45;142809.19;;;4.87;98.12
8280;BME280;8335;42.646;23.380;2024-02-23T05:32:12;142817.81;;;4.91;97.50
8280;BME280;8335;42.646;23.380;2024-02-23T05:34:38;142828.97;;;4.95;97.71
8280;BME280;8335;42.646;23.380;2024-02-23T05:37:06;142841.34;;;5.01;97.00
8280;BME280;8335;42.646;23.380;2024-02-23T05:39:32;142856.16;;;5.07;96.48
8280;BME280;8335;42.646;23.380;2024-02-23T05:41:59;142874.78;;;5.14;95.67
8280;BME280;8335;42.646;23.380;2024-02-23T05:44:27;142885.88;;;5.19;95.81
8280;BME280;8335;42.646;23.380;2024-02-23T05:46:54;142890.81;;;5.21;96.19
8280;BME280;8335;42.646;23.380;2024-02-23T05:49:20;142906.91;;;5.28;96.06
8280;BME280;8335;42.646;23.380;2024-02-23T05:51:47;142916.81;;;5.32;94.96
8280;BME280;8335;42.646;23.380;2024-02-23T05:54:14;142924.22;;;5.35;93.77
8280;BME280;8335;42.646;23.380;2024-02-23T05:56:40;142935.38;;;5.39;93.91
8280;BME280;8335;42.646;23.380;2024-02-23T05:59:07;142955.19;;;5.47;93.72
8280;BME280;8335;42.646;23.380;2024-02-23T06:01:35;142977.47;;;5.57;94.06
8280;BME280;8335;42.646;23.380;2024-02-23T06:04:02;143053.00;;;5.88;94.66
8280;BME280;8335;42.646;23.380;2024-02-23T06:06:28;143241.34;;;6.65;90.63
8280;BME280;8335;42.646;23.380;2024-02-23T06:08:56;143525.22;;;7.82;84.90
8280;BME280;8335;42.646;23.380;2024-02-23T06:11:23;143840.44;;;9.11;79.32
8280;BME280;8335;42.646;23.380;2024-02-23T06:13:49;144164.75;;;10.44;72.96
8280;BME280;8335;42.646;23.380;2024-02-23T06:16:16;144488.09;;;11.76;67.64
8280;BME280;8335;42.646;23.380;2024-02-23T06:18:44;144774.47;;;12.93;62.58
8280;BME280;8335;42.646;23.380;2024-02-23T06:21:12;145042.41;;;14.03;58.81
8280;BME280;8335;42.646;23.380;2024-02-23T06:23:39;145284.38;;;15.02;54.49
8280;BME280;8335;42.646;23.380;2024-02-23T06:26:06;145489.03;;;15.85;50.59
8280;BME280;8335;42.646;23.380;2024-02-23T06:28:33;145695.13;;;16.69;47.97
8280;BME280;8335;42.646;23.380;2024-02-23T06:31:00;145886.31;;;17.47;45.42
8280;BME280;8335;42.646;23.380;2024-02-23T06:33:26;145997.59;;;17.93;44.01
8280;BME280;8335;42.646;23.380;2024-02-23T06:35:56;146172.66;;;18.64;42.34
8280;BME280;8335;42.646;23.380;2024-02-23T06:38:22;146186.47;;;18.69;40.81
8280;BME280;8335;42.646;23.380;2024-02-23T06:40:49;146354.16;;;19.38;39.30
8280;BME280;8335;42.646;23.380;2024-02-23T06:43:16;146529.47;;;20.09;38.42
8280;BME280;8335;42.646;23.380;2024-02-23T06:45:42;146649.75;;;20.58;36.01
8280;BME280;8335;42.646;23.380;2024-02-23T06:48:09;146758.75;;;21.02;35.45
8280;BME280;8335;42.646;23.380;2024-02-23T06:50:36;146874.06;;;21.49;35.22
8280;BME280;8335;42.646;23.380;2024-02-23T06:53:04;146974.38;;;21.90;34.78
8280;BME280;8335;42.646;23.380;2024-02-23T06:55:32;147072.25;;;22.30;32.67
8280;BME280;8335;42.646;23.380;2024-02-23T06:57:59;147121.13;;;22.49;32.16
8280;BME280;8335;42.646;23.380;2024-02-23T07:00:26;147113.63;;;22.46;32.12
8280;BME280;8335;42.646;23.380;2024-02-23T07:02:52;147089.81;;;22.37;32.31
8280;BME280;8335;42.646;23.380;2024-02-23T07:05:19;147067.19;;;22.28;31.75
8280;BME280;8335;42.646;23.380;2024-02-23T07:07:46;147053.44;;;22.22;32.17
8280;BME280;8335;42.646;23.380;2024-02-23T07:10:14;146991.91;;;21.97;32.65
8280;BME280;8335;42.646;23.380;2024-02-23T07:12:43;147074.75;;;22.31;32.50
8280;BME280;8335;42.646;23.380;2024-02-23T07:15:10;146999.41;;;22.00;32.78
8280;BME280;8335;42.646;23.380;2024-02-23T07:17:36;146902.91;;;21.61;32.69
8280;BME280;8335;42.646;23.380;2024-02-23T07:20:04;146867.81;;;21.47;33.03
8280;BME280;8335;42.646;23.380;2024-02-23T07:22:31;146726.16;;;20.89;33.88
8280;BME280;8335;42.646;23.380;2024-02-23T07:24:58;146703.63;;;20.80;34.00
8280;BME280;8335;42.646;23.380;2024-02-23T07:27:29;146613.38;;;20.43;34.49
8280;BME280;8335;42.646;23.380;2024-02-23T07:29:55;146294.06;;;19.13;36.31
8280;BME280;8335;42.646;23.380;2024-02-23T07:32:22;146317.88;;;19.23;37.07
8280;BME280;8335;42.646;23.380;2024-02-23T07:34:49;146299.09;;;19.15;37.02
8280;BME280;8335;42.646;23.380;2024-02-23T07:37:16;146400.44;;;19.57;37.09
8280;BME280;8335;42.646;23.380;2024-02-23T07:39:42;146438.09;;;19.72;36.86
8280;BME280;8335;42.646;23.380;2024-02-23T07:42:09;146577.03;;;20.28;36.34
8280;BME280;8335;42.646;23.380;2024-02-23T07:44:37;146699.81;;;20.78;35.47
8280;BME280;8335;42.646;23.380;2024-02-23T07:47:04;146831.47;;;21.32;34.52
8280;BME280;8335;42.646;23.380;2024-02-23T07:49:31;146854.00;;;21.41;34.49
8280;BME280;8335;42.646;23.380;2024-02-23T07:51:58;146793.84;;;21.16;34.58
8280;BME280;8335;42.646;23.380;2024-02-23T07:54:24;146712.38;;;20.83;35.13
8280;BME280;8335;42.646;23.380;2024-02-23T07:56:51;146538.22;;;20.13;36.59
8280;BME280;8335;42.646;23.380;2024-02-23T07:59:18;146544.50;;;20.15;37.24
8280;BME280;8335;42.646;23.380;2024-02-23T08:01:46;146640.97;;;20.54;36.82
8280;BME280;8335;42.646;23.380;2024-02-23T08:04:13;146781.28;;;21.11;36.38
8280;BME280;8335;42.646;23.380;2024-02-23T08:06:40;146861.56;;;21.44;35.27
8280;BME280;8335;42.646;23.380;2024-02-23T08:09:08;146753.69;;;21.00;35.83
8280;BME280;8335;42.646;23.380;2024-02-23T08:11:34;146743.69;;;20.96;35.93
8280;BME280;8335;42.646;23.380;2024-02-23T08:14:01;146673.53;;;20.68;36.05
8280;BME280;8335;42.646;23.380;2024-02-23T08:16:28;146654.75;;;20.60;36.31
8280;BME280;8335;42.646;23.380;2024-02-23T08:18:56;146525.72;;;20.08;37.53
8280;BME280;8335;42.646;23.380;2024-02-23T08:21:23;146464.34;;;19.83;37.38
8280;BME280;8335;42.646;23.380;2024-02-23T08:23:49;146508.19;;;20.00;37.22
8280;BME280;8335;42.646;23.380;2024-02-23T08:26:16;146600.84;;;20.38;36.55
8280;BME280;8335;42.646;23.380;2024-02-23T08:28:43;146639.72;;;20.54;36.32
8280;BME280;8335;42.646;23.380;2024-02-23T08:31:10;146534.47;;;20.11;37.12
8280;BME280;8335;42.646;23.380;2024-02-23T08:33:36;146359.16;;;19.40;38.26
8280;BME280;8335;42.646;23.380;2024-02-23T08:36:05;146241.50;;;18.92;39.54
8280;BME280;8335;42.646;23.380;2024-02-23T08:38:32;146043.84;;;18.11;40.52
8280;BME280;8335;42.646;23.380;2024-02-23T08:40:59;145945.06;;;17.71;41.82
8280;BME280;8335;42.646;23.380;2024-02-23T08:43:25;145967.63;;;17.80;42.31
8280;BME280;8335;42.646;23.380;2024-02-23T08:45:52;145907.53;;;17.56;42.87
8280;BME280;8335;42.646;23.380;2024-02-23T08:48:18;145822.53;;;17.21;42.94
8280;BME280;8335;42.646;23.380;2024-02-23T08:50:45;145718.91;;;16.79;44.68
8280;BME280;8335;42.646;23.380;2024-02-23T08:53:13;145608.91;;;16.34;46.24
8280;BME280;8335;42.646;23.380;2024-02-23T08:55:40;145538.97;;;16.06;47.38
8280;BME280;8335;42.646;23.380;2024-02-23T08:58:07;145546.50;;;16.09;47.46
8280;BME280;8335;42.646;23.380;2024-02-23T09:00:34;145545.25;;;16.08;46.97
8280;BME280;8335;42.646;23.380;2024-02-23T09:03:02;145537.75;;;16.05;46.83
8280;BME280;8335;42.646;23.380;2024-02-23T09:05:29;145616.44;;;16.37;46.70
8280;BME280;8335;42.646;23.380;2024-02-23T09:07:55;145728.84;;;16.83;45.75
8280;BME280;8335;42.646;23.380;2024-02-23T09:10:23;145826.34;;;17.23;44.06
8280;BME280;8335;42.646;23.380;2024-02-23T09:12:50;145932.56;;;17.66;43.29
8280;BME280;8335;42.646;23.380;2024-02-23T09:15:17;146030.09;;;18.06;42.59
8280;BME280;8335;42.646;23.380;2024-02-23T09:17:43;146136.38;;;18.49;40.70
8280;BME280;8335;42.646;23.380;2024-02-23T09:20:11;146200.25;;;18.75;40.08
8280;BME280;8335;42.646;23.380;2024-02-23T09:22:38;146292.81;;;19.13;39.27
8280;BME280;8335;42.646;23.380;2024-02-23T09:25:05;146357.91;;;19.39;38.83
8280;BME280;8335;42.646;23.380;2024-02-23T09:27:35;146425.56;;;19.67;38.16
8280;BME280;8335;42.646;23.380;2024-02-23T09:30:09;146379.16;;;19.48;37.28
8280;BME280;8335;42.646;23.380;2024-02-23T09:32:36;146418.00;;;19.64;36.57
8280;BME280;8335;42.646;23.380;2024-02-23T09:35:03;146350.41;;;19.36;36.88
8280;BME280;8335;42.646;23.380;2024-02-23T09:37:31;146357.91;;;19.39;36.87
8280;BME280;8335;42.646;23.380;2024-02-23T09:39:58;146391.72;;;19.53;37.00
8280;BME280;8335;42.646;23.380;2024-02-23T09:42:25;146445.56;;;19.75;37.42
8280;BME280;8335;42.646;23.380;2024-02-23T09:44:57;146466.84;;;19.84;36.00
8280;BME280;8335;42.646;23.380;2024-02-23T09:47:25;146503.16;;;19.98;36.02
8280;BME280;8335;42.646;23.380;2024-02-23T09:49:53;146526.97;;;20.08;36.19
8280;BME280;8335;42.646;23.380;2024-02-23T09:52:21;146560.78;;;20.22;35.99
8280;BME280;8335;42.646;23.380;2024-02-23T09:54:48;146553.25;;;20.19;35.45
8280;BME280;8335;42.646;23.380;2024-02-23T09:57:15;146533.22;;;20.11;35.27
8280;BME280;8335;42.646;23.380;2024-02-23T09:59:42;146326.59;;;19.27;36.39
8280;BME280;8335;42.646;23.380;2024-02-23T10:02:14;146231.53;;;18.88;36.60
8280;BME280;8335;42.646;23.380;2024-02-23T10:04:42;146118.88;;;18.42;37.85
8280;BME280;8335;42.646;23.380;2024-02-23T10:07:10;146026.34;;;18.04;38.95
8280;BME280;8335;42.646;23.380;2024-02-23T10:09:36;145975.09;;;17.83;38.96
8280;BME280;8335;42.646;23.380;2024-02-23T10:12:04;145972.59;;;17.82;38.64
8280;BME280;8335;42.646;23.380;2024-02-23T10:14:30;145990.09;;;17.90;38.69
8280;BME280;8335;42.646;23.380;2024-02-23T10:16:57;146057.63;;;18.17;38.20
8280;BME280;8335;42.646;23.380;2024-02-23T10:19:25;146168.91;;;18.62;38.11
8280;BME280;8335;42.646;23.380;2024-02-23T10:21:54;146274.06;;;19.05;37.26
8280;BME280;8335;42.646;23.380;2024-02-23T10:24:22;146356.66;;;19.39;36.53
8280;BME280;8335;42.646;23.380;2024-02-23T10:26:49;146420.56;;;19.65;35.57
8280;BME280;8335;42.646;23.380;2024-02-23T10:29:16;146458.09;;;19.80;35.58
8280;BME280;8335;42.646;23.380;2024-02-23T10:31:44;146543.25;;;20.15;35.48
8280;BME280;8335;42.646;23.380;2024-02-23T10:34:18;146667.28;;;20.65;34.19
8280;BME280;8335;42.646;23.380;2024-02-23T10:36:46;146753.69;;;21.00;33.11
8280;BME280;8335;42.646;23.380;2024-02-23T10:39:16;146795.09;;;21.17;33.21
8280;BME280;8335;42.646;23.380;2024-02-23T10:41:47;146811.38;;;21.24;32.88
8280;BME280;8335;42.646;23.380;2024-02-23T10:44:16;146876.56;;;21.50;32.21
8280;BME280;8335;42.646;23.380;2024-02-23T10:46:44;146874.06;;;21.49;32.33
8280;BME280;8335;42.646;23.380;2024-02-23T10:49:12;146840.22;;;21.35;32.19
8280;BME280;8335;42.646;23.380;2024-02-23T10:51:42;146845.25;;;21.37;32.51
8280;BME280;8335;42.646;23.380;2024-02-23T10:54:11;146719.91;;;20.86;31.59
8280;BME280;8335;42.646;23.380;2024-02-23T10:56:39;146580.81;;;20.30;32.71
8280;BME280;8335;42.646;23.380;2024-02-23T10:59:08;146535.72;;;20.12;33.17
8280;BME280;8335;42.646;23.380;2024-02-23T11:01:35;146664.75;;;20.64;32.39
8280;BME280;8335;42.646;23.380;2024-02-23T11:04:06;146831.47;;;21.32;32.04
8280;BME280;8335;42.646;23.380;2024-02-23T11:06:34;146718.66;;;20.86;32.34
8280;BME280;8335;42.646;23.380;2024-02-23T11:09:07;146624.69;;;20.48;32.16
8280;BME280;8335;42.646;23.380;2024-02-23T11:11:36;146770.00;;;21.07;31.91
8280;BME280;8335;42.646;23.380;2024-02-23T11:14:07;146861.56;;;21.44;31.03
8280;BME280;8335;42.646;23.380;2024-02-23T11:16:38;146973.13;;;21.89;29.96
8280;BME280;8335;42.646;23.380;2024-02-23T11:19:05;146958.06;;;21.83;29.75
8280;BME280;8335;42.646;23.380;2024-02-23T11:21:34;146796.31;;;21.17;30.44
8280;BME280;8335;42.646;23.380;2024-02-23T11:24:03;146796.31;;;21.17;31.11
8280;BME280;8335;42.646;23.380;2024-02-23T11:26:30;146771.25;;;21.07;30.31
8280;BME280;8335;42.646;23.380;2024-02-23T11:29:09;146723.66;;;20.88;30.92
8280;BME280;8335;42.646;23.380;2024-02-23T11:31:36;146671.03;;;20.67;32.06
8280;BME280;8335;42.646;23.380;2024-02-23T11:34:10;146568.28;;;20.25;32.53
8280;BME280;8335;42.646;23.380;2024-02-23T11:36:38;146485.63;;;19.91;32.59
8280;BME280;8335;42.646;23.380;2024-02-23T11:39:05;146438.09;;;19.72;32.90
8280;BME280;8335;42.646;23.380;2024-02-23T11:41:32;146404.28;;;19.58;33.09
8280;BME280;8335;42.646;23.380;2024-02-23T11:44:00;146409.28;;;19.60;33.16
8280;BME280;8335;42.646;23.380;2024-02-23T11:46:28;146375.44;;;19.46;33.06
8280;BME280;8335;42.646;23.380;2024-02-23T11:48:55;146309.09;;;19.19;33.31
8280;BME280;8335;42.646;23.380;2024-02-23T11:51:22;146256.53;;;18.98;34.24
8280;BME280;8335;42.646;23.380;2024-02-23T11:53:52;146217.75;;;18.82;34.44
8280;BME280;8335;42.646;23.380;2024-02-23T11:56:22;146153.91;;;18.56;35.57
8280;BME280;8335;42.646;23.380;2024-02-23T11:58:49;146237.78;;;18.90;35.36
8280;BME280;8335;42.646;23.380;2024-02-23T12:01:17;146286.59;;;19.10;34.50
8280;BME280;8335;42.646;23.380;2024-02-23T12:03:44;146279.03;;;19.07;34.25
8280;BME280;8335;42.646;23.380;2024-02-23T12:06:11;146276.53;;;19.06;34.34
8280;BME280;8335;42.646;23.380;2024-02-23T12:08:41;146287.81;;;19.11;33.86
8280;BME280;8335;42.646;23.380;2024-02-23T12:11:09;146241.50;;;18.92;33.72
8280;BME280;8335;42.646;23.380;2024-02-23T12:13:36;146207.72;;;18.78;34.04
8280;BME280;8335;42.646;23.380;2024-02-23T12:16:04;146216.50;;;18.82;34.31
8280;BME280;8335;42.646;23.380;2024-02-23T12:18:34;146225.25;;;18.85;33.90
8280;BME280;8335;42.646;23.380;2024-02-23T12:21:01;146244.00;;;18.93;33.69
8280;BME280;8335;42.646;23.380;2024-02-23T12:23:38;146267.81;;;19.03;33.18
8280;BME280;8335;42.646;23.380;2024-02-23T12:26:05;146265.31;;;19.02;33.84
8280;BME280;8335;42.646;23.380;2024-02-23T12:28:32;146237.78;;;18.90;34.02
8280;BME280;8335;42.646;23.380;2024-02-23T12:30:59;146221.50;;;18.84;34.04
8280;BME280;8335;42.646;23.380;2024-02-23T12:33:27;146168.91;;;18.62;34.15
8280;BME280;8335;42.646;23.380;2024-02-23T12:35:56;146118.88;;;18.42;34.31
8280;BME280;8335;42.646;23.380;2024-02-23T12:38:24;146092.63;;;18.31;34.70
8280;BME280;8335;42.646;23.380;2024-02-23T12:40:51;146095.13;;;18.32;35.33
8280;BME280;8335;42.646;23.380;2024-02-23T12:43:18;146083.84;;;18.28;35.07
8280;BME280;8335;42.646;23.380;2024-02-23T12:45:46;146065.09;;;18.20;35.38
8280;BME280;8335;42.646;23.380;2024-02-23T12:48:15;146042.59;;;18.11;35.53
8280;BME280;8335;42.646;23.380;2024-02-23T12:50:42;146003.88;;;17.95;35.88
8280;BME280;8335;42.646;23.380;2024-02-23T12:53:30;145938.78;;;17.69;36.98
8280;BME280;8335;42.646;23.380;2024-02-23T12:55:57;145900.06;;;17.53;37.00
8280;BME280;8335;42.646;23.380;2024-02-23T12:58:24;145833.81;;;17.26;36.52
8280;BME280;8335;42.646;23.380;2024-02-23T13:00:51;145791.34;;;17.09;36.80
8280;BME280;8335;42.646;23.380;2024-02-23T13:03:18;145781.34;;;17.04;36.98
8280;BME280;8335;42.646;23.380;2024-02-23T13:05:44;145773.84;;;17.01;36.68